Wetterdaten: Woche 07.09.09 - 13.09.09 (KW37)
Datum Zeit Temperatur Luftfeuchte Luftdruck Niederschlag Wind Richtung Sonnenschein Solar Taupunkt Windchill Windben
07.09.2009 00:00 10.4 C 89 % 1023.4 hPa 0.0 l/m 1.4 km/h (1 Bft) O 0.00 h 0 W/m 8.6 C 10.4 C 2.9 km/h (1 Bft)
07.09.2009 01:00 9.6 C 91 % 1023.4 hPa 0.0 l/m 0.8 km/h (0 Bft) O 0.00 h 0 W/m 8.2 C 9.6 C 1.8 km/h (1 Bft)
07.09.2009 02:00 9.0 C 92 % 1023.4 hPa 0.0 l/m 0.8 km/h (0 Bft) O 0.00 h 0 W/m 7.7 C 9.0 C 1.4 km/h (1 Bft)
07.09.2009 03:00 8.5 C 93 % 1023.2 hPa 0.0 l/m 1.1 km/h (1 Bft) O 0.00 h 0 W/m 7.5 C 8.5 C 2.0 km/h (1 Bft)
07.09.2009 04:00 8.1 C 95 % 1023.0 hPa 0.0 l/m 1.1 km/h (1 Bft) O 0.00 h 0 W/m 7.3 C 8.1 C 2.3 km/h (1 Bft)
07.09.2009 05:00 7.7 C 95 % 1023.0 hPa 0.0 l/m 0.3 km/h (0 Bft) O 0.00 h 0 W/m 6.9 C 7.7 C 0.9 km/h (0 Bft)
07.09.2009 06:00 7.2 C 96 % 1023.0 hPa 0.0 l/m 1.5 km/h (1 Bft) O 0.00 h 5 W/m 6.6 C 7.2 C 2.5 km/h (1 Bft)
07.09.2009 07:00 7.1 C 96 % 1023.5 hPa 0.0 l/m 0.1 km/h (0 Bft) O 0.03 h 30 W/m 6.6 C 7.1 C 0.5 km/h (0 Bft)
07.09.2009 08:00 9.0 C 97 % 1023.9 hPa 0.0 l/m 0.0 km/h (0 Bft) N 0.98 h 191 W/m 8.4 C 9.0 C 0.1 km/h (0 Bft)
07.09.2009 09:00 12.1 C 85 % 1023.8 hPa 0.0 l/m 0.1 km/h (0 Bft) O 1.00 h 330 W/m 9.6 C 12.1 C 1.3 km/h (1 Bft)
07.09.2009 10:00 14.9 C 77 % 1023.9 hPa 0.0 l/m 0.3 km/h (0 Bft) O 1.00 h 483 W/m 10.9 C 14.9 C 1.6 km/h (1 Bft)
07.09.2009 11:00 17.1 C 69 % 1023.7 hPa 0.0 l/m 1.0 km/h (0 Bft) SO 1.00 h 579 W/m 11.5 C 17.1 C 2.9 km/h (1 Bft)
07.09.2009 12:00 18.8 C 66 % 1023.3 hPa 0.0 l/m 1.4 km/h (1 Bft) S-SO 1.00 h 600 W/m 12.4 C 18.8 C 3.4 km/h (1 Bft)
07.09.2009 13:00 20.2 C 62 % 1023.1 hPa 0.0 l/m 2.0 km/h (1 Bft) W-NW 0.98 h 644 W/m 12.7 C 20.2 C 4.3 km/h (1 Bft)
07.09.2009 14:00 21.9 C 58 % 1022.7 hPa 0.0 l/m 2.5 km/h (1 Bft) SO 1.00 h 676 W/m 13.2 C 21.9 C 5.2 km/h (1 Bft)
07.09.2009 15:00 22.9 C 53 % 1022.1 hPa 0.0 l/m 2.1 km/h (1 Bft) O-SO 1.00 h 595 W/m 12.9 C 22.9 C 4.5 km/h (1 Bft)
07.09.2009 16:00 23.2 C 50 % 1021.9 hPa 0.0 l/m 1.5 km/h (1 Bft) O-SO 0.75 h 385 W/m 12.1 C 23.2 C 3.2 km/h (1 Bft)
07.09.2009 17:00 23.3 C 51 % 1021.6 hPa 0.0 l/m 0.8 km/h (0 Bft) O-SO 0.83 h 276 W/m 12.4 C 23.3 C 2.4 km/h (1 Bft)
07.09.2009 18:00 22.5 C 57 % 1021.5 hPa 0.0 l/m 2.0 km/h (1 Bft) O-SO 0.30 h 113 W/m 13.5 C 22.5 C 3.9 km/h (1 Bft)
07.09.2009 19:00 20.6 C 60 % 1021.8 hPa 0.0 l/m 3.5 km/h (1 Bft) O-SO 0.05 h 32 W/m 12.6 C 20.6 C 4.8 km/h (1 Bft)
07.09.2009 20:00 17.9 C 71 % 1022.2 hPa 0.0 l/m 1.9 km/h (1 Bft) O-SO 0.00 h 0 W/m 12.4 C 17.9 C 3.1 km/h (1 Bft)
07.09.2009 21:00 15.7 C 81 % 1022.6 hPa 0.0 l/m 2.8 km/h (1 Bft) O 0.00 h 0 W/m 12.4 C 15.7 C 4.0 km/h (1 Bft)
07.09.2009 22:00 14.0 C 86 % 1022.6 hPa 0.0 l/m 2.9 km/h (1 Bft) SO 0.00 h 0 W/m 11.7 C 14.0 C 4.2 km/h (1 Bft)
07.09.2009 23:00 13.2 C 88 % 1022.6 hPa 0.0 l/m 0.5 km/h (0 Bft) SO 0.00 h 0 W/m 11.3 C 13.2 C 1.2 km/h (1 Bft)
08.09.2009 00:00 12.3 C 91 % 1022.6 hPa 0.0 l/m 1.1 km/h (1 Bft) SO 0.00 h 0 W/m 10.9 C 12.3 C 2.1 km/h (1 Bft)
08.09.2009 01:00 11.4 C 92 % 1022.6 hPa 0.0 l/m 0.8 km/h (0 Bft) SO 0.00 h 0 W/m 10.2 C 11.4 C 1.8 km/h (1 Bft)
08.09.2009 02:00 10.8 C 94 % 1022.6 hPa 0.0 l/m 0.7 km/h (0 Bft) SO 0.00 h 0 W/m 9.9 C 10.8 C 1.7 km/h (1 Bft)
08.09.2009 03:00 10.4 C 96 % 1022.7 hPa 0.0 l/m 0.5 km/h (0 Bft) SO 0.00 h 0 W/m 9.8 C 10.4 C 1.1 km/h (0 Bft)
08.09.2009 04:00 9.9 C 96 % 1022.9 hPa 0.0 l/m 0.1 km/h (0 Bft) SO 0.00 h 0 W/m 9.3 C 9.9 C 0.4 km/h (0 Bft)
08.09.2009 05:00 9.4 C 97 % 1023.0 hPa 0.0 l/m 0.1 km/h (0 Bft) SO 0.00 h 0 W/m 8.9 C 9.4 C 0.3 km/h (0 Bft)
08.09.2009 06:00 9.6 C 97 % 1023.3 hPa 0.0 l/m 0.1 km/h (0 Bft) SO 0.00 h 0 W/m 9.1 C 9.6 C 0.5 km/h (0 Bft)
08.09.2009 07:00 9.5 C 98 % 1023.8 hPa 0.0 l/m 0.0 km/h (0 Bft) SO 0.02 h 26 W/m 9.2 C 9.5 C 0.5 km/h (0 Bft)
08.09.2009 08:00 10.4 C 98 % 1024.2 hPa 0.0 l/m 0.1 km/h (0 Bft) SO 0.00 h 94 W/m 10.1 C 10.4 C 0.7 km/h (0 Bft)
08.09.2009 09:00 12.2 C 97 % 1024.3 hPa 0.0 l/m 0.0 km/h (0 Bft) SO 0.58 h 273 W/m 11.8 C 12.2 C 0.4 km/h (0 Bft)
08.09.2009 10:00 16.2 C 81 % 1023.9 hPa 0.0 l/m 1.1 km/h (1 Bft) N-NW 1.00 h 469 W/m 12.9 C 16.2 C 2.4 km/h (1 Bft)
08.09.2009 11:00 19.3 C 70 % 1023.6 hPa 0.0 l/m 1.7 km/h (1 Bft) NW 1.00 h 575 W/m 13.6 C 19.3 C 4.0 km/h (1 Bft)
08.09.2009 12:00 21.3 C 62 % 1022.7 hPa 0.0 l/m 2.5 km/h (1 Bft) O-SO 0.95 h 653 W/m 13.7 C 21.3 C 5.4 km/h (1 Bft)
08.09.2009 13:00 23.1 C 55 % 1022.1 hPa 0.0 l/m 3.2 km/h (1 Bft) O-SO 1.00 h 694 W/m 13.7 C 23.1 C 6.4 km/h (2 Bft)
08.09.2009 14:00 24.9 C 47 % 1021.4 hPa 0.0 l/m 3.3 km/h (1 Bft) O-SO 1.00 h 668 W/m 12.6 C 24.9 C 6.6 km/h (2 Bft)
08.09.2009 15:00 25.9 C 39 % 1020.9 hPa 0.0 l/m 3.6 km/h (1 Bft) O-SO 1.00 h 589 W/m 10.9 C 25.9 C 7.0 km/h (2 Bft)
08.09.2009 16:00 25.9 C 36 % 1020.5 hPa 0.0 l/m 7.9 km/h (2 Bft) O-SO 1.00 h 467 W/m 9.5 C 25.9 C 12.0 km/h (2 Bft)
08.09.2009 17:00 25.6 C 37 % 1020.1 hPa 0.0 l/m 4.9 km/h (1 Bft) O-SO 0.95 h 309 W/m 9.9 C 25.6 C 8.4 km/h (2 Bft)
08.09.2009 18:00 24.9 C 40 % 1019.9 hPa 0.0 l/m 1.8 km/h (1 Bft) O 0.35 h 100 W/m 10.4 C 24.9 C 4.2 km/h (1 Bft)
08.09.2009 19:00 23.3 C 45 % 1019.9 hPa 0.0 l/m 0.9 km/h (0 Bft) O-NO 0.15 h 32 W/m 10.6 C 23.3 C 3.0 km/h (1 Bft)
08.09.2009 20:00 21.2 C 55 % 1020.5 hPa 0.0 l/m 0.2 km/h (0 Bft) N 0.00 h 0 W/m 11.8 C 21.2 C 1.1 km/h (0 Bft)
08.09.2009 21:00 18.5 C 66 % 1020.9 hPa 0.0 l/m 0.0 km/h (0 Bft) N 0.00 h 0 W/m 12.1 C 18.5 C 0.4 km/h (0 Bft)
08.09.2009 22:00 16.4 C 74 % 1020.9 hPa 0.0 l/m 0.2 km/h (0 Bft) N-NW 0.00 h 0 W/m 11.9 C 16.4 C 0.7 km/h (0 Bft)
08.09.2009 23:00 15.2 C 78 % 1020.9 hPa 0.0 l/m 0.5 km/h (0 Bft) O 0.00 h 0 W/m 11.4 C 15.2 C 1.5 km/h (1 Bft)
09.09.2009 00:00 14.0 C 81 % 1020.8 hPa 0.0 l/m 0.7 km/h (0 Bft) O 0.00 h 0 W/m 10.8 C 14.0 C 1.6 km/h (1 Bft)
09.09.2009 01:00 13.4 C 83 % 1020.7 hPa 0.0 l/m 1.9 km/h (1 Bft) O 0.00 h 0 W/m 10.6 C 13.4 C 3.3 km/h (1 Bft)
09.09.2009 02:00 12.4 C 86 % 1020.4 hPa 0.0 l/m 2.0 km/h (1 Bft) O-SO 0.00 h 0 W/m 10.0 C 12.4 C 3.4 km/h (1 Bft)
09.09.2009 03:00 11.8 C 87 % 1020.4 hPa 0.0 l/m 0.4 km/h (0 Bft) O-SO 0.00 h 0 W/m 9.7 C 11.8 C 0.9 km/h (0 Bft)
09.09.2009 04:00 11.0 C 89 % 1020.3 hPa 0.0 l/m 0.5 km/h (0 Bft) O-SO 0.00 h 0 W/m 9.3 C 11.0 C 1.4 km/h (1 Bft)
09.09.2009 05:00 10.2 C 91 % 1020.4 hPa 0.0 l/m 0.2 km/h (0 Bft) O-SO 0.00 h 0 W/m 8.8 C 10.2 C 0.5 km/h (0 Bft)
09.09.2009 06:00 9.8 C 93 % 1020.8 hPa 0.0 l/m 0.0 km/h (0 Bft) N 0.00 h 0 W/m 8.7 C 9.8 C 0.3 km/h (0 Bft)
09.09.2009 07:00 9.6 C 95 % 1021.5 hPa 0.0 l/m 0.0 km/h (0 Bft) O-SO 0.05 h 24 W/m 8.8 C 9.6 C 0.4 km/h (0 Bft)
09.09.2009 08:00 11.4 C 96 % 1021.8 hPa 0.0 l/m 0.2 km/h (0 Bft) O-SO 1.00 h 181 W/m 10.7 C 11.4 C 0.5 km/h (0 Bft)
09.09.2009 09:00 15.4 C 81 % 1021.9 hPa 0.0 l/m 1.1 km/h (1 Bft) N 1.00 h 338 W/m 12.2 C 15.4 C 2.4 km/h (1 Bft)
09.09.2009 10:00 18.0 C 71 % 1021.8 hPa 0.0 l/m 1.7 km/h (1 Bft) W-SW 1.00 h 487 W/m 12.6 C 18.0 C 3.6 km/h (1 Bft)
09.09.2009 11:00 19.8 C 63 % 1021.8 hPa 0.0 l/m 2.8 km/h (1 Bft) O-SO 1.00 h 611 W/m 12.6 C 19.8 C 5.4 km/h (1 Bft)
09.09.2009 12:00 21.9 C 57 % 1021.4 hPa 0.0 l/m 3.0 km/h (1 Bft) O-SO 1.00 h 688 W/m 12.9 C 21.9 C 5.9 km/h (2 Bft)
09.09.2009 13:00 23.4 C 49 % 1020.8 hPa 0.0 l/m 6.1 km/h (2 Bft) O-SO 1.00 h 712 W/m 12.1 C 23.4 C 10.1 km/h (2 Bft)
09.09.2009 14:00 24.4 C 39 % 1020.5 hPa 0.0 l/m 5.9 km/h (2 Bft) O-SO 1.00 h 687 W/m 9.7 C 24.4 C 10.1 km/h (2 Bft)
09.09.2009 15:00 24.8 C 33 % 1020.3 hPa 0.0 l/m 8.2 km/h (2 Bft) O-SO 1.00 h 608 W/m 7.4 C 24.8 C 13.2 km/h (3 Bft)
09.09.2009 16:00 24.9 C 30 % 1020.2 hPa 0.0 l/m 8.3 km/h (2 Bft) O-SO 1.00 h 488 W/m 5.9 C 24.9 C 13.0 km/h (3 Bft)
09.09.2009 17:00 24.5 C 30 % 1020.4 hPa 0.0 l/m 7.7 km/h (2 Bft) O-SO 0.97 h 321 W/m 5.9 C 24.5 C 12.8 km/h (3 Bft)
09.09.2009 18:00 23.7 C 32 % 1020.9 hPa 0.0 l/m 3.0 km/h (1 Bft) O-SO 0.28 h 91 W/m 6.1 C 23.7 C 5.6 km/h (1 Bft)
09.09.2009 19:00 21.8 C 40 % 1021.3 hPa 0.0 l/m 0.3 km/h (0 Bft) O-NO 0.00 h 24 W/m 7.7 C 21.8 C 1.6 km/h (1 Bft)
09.09.2009 20:00 19.1 C 50 % 1022.2 hPa 0.0 l/m 1.0 km/h (0 Bft) O-NO 0.00 h 0 W/m 8.4 C 19.1 C 2.3 km/h (1 Bft)
09.09.2009 21:00 16.8 C 61 % 1022.6 hPa 0.0 l/m 1.9 km/h (1 Bft) SO 0.00 h 0 W/m 9.2 C 16.8 C 2.8 km/h (1 Bft)
09.09.2009 22:00 14.8 C 70 % 1023.0 hPa 0.0 l/m 1.8 km/h (1 Bft) SO 0.00 h 0 W/m 9.4 C 14.8 C 3.2 km/h (1 Bft)
09.09.2009 23:00 13.8 C 76 % 1023.3 hPa 0.0 l/m 2.8 km/h (1 Bft) O-SO 0.00 h 0 W/m 9.6 C 13.8 C 4.4 km/h (1 Bft)
10.09.2009 00:00 12.8 C 80 % 1023.4 hPa 0.0 l/m 1.6 km/h (1 Bft) O 0.00 h 0 W/m 9.4 C 12.8 C 2.7 km/h (1 Bft)
10.09.2009 01:00 11.9 C 83 % 1023.7 hPa 0.0 l/m 1.9 km/h (1 Bft) O 0.00 h 0 W/m 9.1 C 11.9 C 3.2 km/h (1 Bft)
10.09.2009 02:00 11.1 C 86 % 1023.4 hPa 0.0 l/m 1.6 km/h (1 Bft) O-SO 0.00 h 0 W/m 8.8 C 11.1 C 3.2 km/h (1 Bft)
10.09.2009 03:00 10.4 C 88 % 1023.4 hPa 0.0 l/m 0.5 km/h (0 Bft) NO 0.00 h 0 W/m 8.5 C 10.4 C 1.4 km/h (1 Bft)
10.09.2009 04:00 9.8 C 90 % 1023.4 hPa 0.0 l/m 0.3 km/h (0 Bft) NO 0.00 h 0 W/m 8.3 C 9.8 C 1.4 km/h (1 Bft)
10.09.2009 05:00 9.4 C 91 % 1023.5 hPa 0.0 l/m 0.7 km/h (0 Bft) NO 0.00 h 0 W/m 8.0 C 9.4 C 1.8 km/h (1 Bft)
10.09.2009 06:00 8.9 C 92 % 1023.6 hPa 0.0 l/m 0.0 km/h (0 Bft) N 0.00 h 0 W/m 7.7 C 8.9 C 0.2 km/h (0 Bft)
10.09.2009 07:00 8.7 C 94 % 1024.3 hPa 0.0 l/m 0.6 km/h (0 Bft) O 0.08 h 31 W/m 7.7 C 8.6 C 1.2 km/h (1 Bft)
10.09.2009 08:00 10.4 C 95 % 1024.7 hPa 0.0 l/m 0.2 km/h (0 Bft) O 1.00 h 166 W/m 9.6 C 10.4 C 1.0 km/h (0 Bft)
10.09.2009 09:00 14.1 C 80 % 1024.9 hPa 0.0 l/m 0.3 km/h (0 Bft) O 1.00 h 313 W/m 10.6 C 14.1 C 1.1 km/h (0 Bft)
10.09.2009 10:00 16.8 C 69 % 1024.8 hPa 0.0 l/m 1.5 km/h (1 Bft) N 1.00 h 458 W/m 11.0 C 16.8 C 3.3 km/h (1 Bft)
10.09.2009 11:00 19.0 C 62 % 1024.6 hPa 0.0 l/m 1.7 km/h (1 Bft) W-NW 1.00 h 568 W/m 11.6 C 19.0 C 3.7 km/h (1 Bft)
10.09.2009 12:00 21.2 C 57 % 1024.0 hPa 0.0 l/m 3.4 km/h (1 Bft) W-NW 1.00 h 645 W/m 12.4 C 21.2 C 5.5 km/h (1 Bft)
10.09.2009 13:00 23.6 C 52 % 1023.5 hPa 0.0 l/m 2.2 km/h (1 Bft) NW 1.00 h 668 W/m 13.1 C 23.6 C 4.3 km/h (1 Bft)
10.09.2009 14:00 24.2 C 49 % 1023.2 hPa 0.0 l/m 5.5 km/h (1 Bft) O-SO 0.88 h 627 W/m 12.9 C 24.2 C 9.7 km/h (2 Bft)
10.09.2009 15:00 24.5 C 48 % 1022.9 hPa 0.0 l/m 3.8 km/h (1 Bft) O-SO 1.00 h 565 W/m 12.8 C 24.5 C 6.8 km/h (2 Bft)
10.09.2009 16:00 25.2 C 46 % 1022.7 hPa 0.0 l/m 2.9 km/h (1 Bft) SO 0.80 h 423 W/m 12.7 C 25.2 C 5.5 km/h (1 Bft)
10.09.2009 17:00 24.0 C 50 % 1023.0 hPa 0.0 l/m 1.5 km/h (1 Bft) SO 0.00 h 130 W/m 12.9 C 24.0 C 3.2 km/h (1 Bft)
10.09.2009 18:00 23.3 C 54 % 1023.1 hPa 0.0 l/m 0.9 km/h (0 Bft) SO 0.00 h 37 W/m 13.5 C 23.3 C 2.1 km/h (1 Bft)
10.09.2009 19:00 22.2 C 54 % 1023.5 hPa 0.0 l/m 1.5 km/h (1 Bft) O-NO 0.00 h 11 W/m 12.4 C 22.2 C 4.0 km/h (1 Bft)
10.09.2009 20:00 21.7 C 50 % 1023.8 hPa 0.0 l/m 1.8 km/h (1 Bft) NO 0.00 h 0 W/m 10.7 C 21.7 C 4.6 km/h (1 Bft)
10.09.2009 21:00 21.1 C 55 % 1024.0 hPa 0.0 l/m 2.4 km/h (1 Bft) NO 0.00 h 0 W/m 11.7 C 21.1 C 5.7 km/h (1 Bft)
10.09.2009 22:00 20.2 C 65 % 1024.2 hPa 0.0 l/m 2.2 km/h (1 Bft) NO 0.00 h 0 W/m 13.3 C 20.2 C 5.0 km/h (1 Bft)
10.09.2009 23:00 18.9 C 73 % 1024.3 hPa 0.0 l/m 2.3 km/h (1 Bft) N-NO 0.00 h 0 W/m 13.8 C 18.9 C 5.3 km/h (1 Bft)
11.09.2009 00:00 18.0 C 76 % 1024.5 hPa 0.0 l/m 3.3 km/h (1 Bft) NO 0.00 h 0 W/m 13.7 C 18.0 C 7.5 km/h (2 Bft)
11.09.2009 01:00 17.3 C 78 % 1024.4 hPa 0.0 l/m 3.0 km/h (1 Bft) NO 0.00 h 0 W/m 13.5 C 17.3 C 7.1 km/h (2 Bft)
11.09.2009 02:00 16.7 C 80 % 1024.2 hPa 0.0 l/m 4.3 km/h (1 Bft) N-NO 0.00 h 0 W/m 13.1 C 16.7 C 8.5 km/h (2 Bft)
11.09.2009 03:00 16.0 C 82 % 1024.0 hPa 0.0 l/m 5.5 km/h (1 Bft) N-NO 0.00 h 0 W/m 13.0 C 16.0 C 11.1 km/h (2 Bft)
11.09.2009 04:00 15.2 C 85 % 1024.1 hPa 0.0 l/m 1.1 km/h (1 Bft) N-NO 0.00 h 0 W/m 12.7 C 15.2 C 3.6 km/h (1 Bft)
11.09.2009 05:00 14.5 C 87 % 1024.1 hPa 0.0 l/m 0.7 km/h (0 Bft) O-NO 0.00 h 0 W/m 12.4 C 14.5 C 1.9 km/h (1 Bft)
11.09.2009 06:00 13.9 C 88 % 1024.3 hPa 0.0 l/m 0.0 km/h (0 Bft) O-NO 0.00 h 0 W/m 12.0 C 13.9 C 0.5 km/h (0 Bft)
11.09.2009 07:00 13.6 C 91 % 1024.9 hPa 0.0 l/m 0.0 km/h (0 Bft) N 0.00 h 19 W/m 12.1 C 13.6 C 0.3 km/h (0 Bft)
11.09.2009 08:00 14.3 C 93 % 1025.0 hPa 0.0 l/m 0.7 km/h (0 Bft) S-SO 0.00 h 60 W/m 13.2 C 14.3 C 1.8 km/h (1 Bft)
11.09.2009 09:00 15.3 C 88 % 1025.2 hPa 0.0 l/m 1.7 km/h (1 Bft) N-NO 0.00 h 77 W/m 13.3 C 15.3 C 3.9 km/h (1 Bft)
11.09.2009 10:00 16.3 C 81 % 1025.4 hPa 0.0 l/m 2.3 km/h (1 Bft) N-NO 0.00 h 101 W/m 13.1 C 16.3 C 5.0 km/h (1 Bft)
11.09.2009 11:00 17.2 C 77 % 1025.2 hPa 0.0 l/m 4.3 km/h (1 Bft) N-NO 0.00 h 150 W/m 13.1 C 17.2 C 9.2 km/h (2 Bft)
11.09.2009 12:00 17.7 C 76 % 1025.0 hPa 0.0 l/m 2.2 km/h (1 Bft) NO 0.00 h 131 W/m 13.3 C 17.7 C 5.1 km/h (1 Bft)
11.09.2009 13:00 17.9 C 75 % 1025.0 hPa 0.0 l/m 1.3 km/h (1 Bft) O-SO 0.00 h 112 W/m 13.4 C 17.9 C 3.5 km/h (1 Bft)
11.09.2009 14:00 19.5 C 69 % 1024.5 hPa 0.0 l/m 4.3 km/h (1 Bft) O-SO 0.80 h 569 W/m 13.7 C 19.5 C 9.1 km/h (2 Bft)
11.09.2009 15:00 21.4 C 61 % 1023.4 hPa 0.0 l/m 5.1 km/h (1 Bft) O-SO 0.72 h 463 W/m 13.6 C 21.4 C 10.1 km/h (2 Bft)
11.09.2009 16:00 21.4 C 59 % 1022.9 hPa 0.0 l/m 5.3 km/h (1 Bft) O-SO 0.70 h 361 W/m 13.2 C 21.4 C 11.0 km/h (2 Bft)
11.09.2009 17:00 21.0 C 61 % 1022.6 hPa 0.0 l/m 2.9 km/h (1 Bft) N-NO 0.12 h 122 W/m 13.3 C 21.0 C 6.4 km/h (2 Bft)
11.09.2009 18:00 20.1 C 63 % 1023.0 hPa 0.0 l/m 6.0 km/h (2 Bft) N 0.00 h 50 W/m 12.8 C 20.1 C 11.8 km/h (2 Bft)
11.09.2009 19:00 18.7 C 66 % 1023.4 hPa 0.0 l/m 4.3 km/h (1 Bft) N 0.00 h 16 W/m 12.3 C 18.7 C 8.8 km/h (2 Bft)
11.09.2009 20:00 17.5 C 70 % 1023.7 hPa 0.0 l/m 3.9 km/h (1 Bft) N 0.00 h 0 W/m 12.0 C 17.5 C 8.1 km/h (2 Bft)
11.09.2009 21:00 16.6 C 74 % 1024.1 hPa 0.0 l/m 2.5 km/h (1 Bft) N-NO 0.00 h 0 W/m 12.0 C 16.6 C 5.8 km/h (2 Bft)
11.09.2009 22:00 16.2 C 76 % 1023.9 hPa 0.0 l/m 2.3 km/h (1 Bft) N 0.00 h 0 W/m 11.9 C 16.2 C 5.4 km/h (1 Bft)
11.09.2009 23:00 15.5 C 77 % 1023.4 hPa 0.0 l/m 1.7 km/h (1 Bft) NO 0.00 h 0 W/m 11.6 C 15.5 C 4.2 km/h (1 Bft)
12.09.2009 00:00 15.1 C 78 % 1022.9 hPa 0.0 l/m 1.9 km/h (1 Bft) NO 0.00 h 0 W/m 11.3 C 15.1 C 4.4 km/h (1 Bft)
12.09.2009 01:00 14.8 C 79 % 1022.2 hPa 0.0 l/m 3.0 km/h (1 Bft) NO 0.00 h 0 W/m 11.2 C 14.8 C 6.6 km/h (2 Bft)
12.09.2009 02:00 14.7 C 79 % 1021.5 hPa 0.0 l/m 3.0 km/h (1 Bft) N-NO 0.00 h 0 W/m 11.0 C 14.7 C 6.9 km/h (2 Bft)
12.09.2009 03:00 14.4 C 79 % 1021.2 hPa 0.0 l/m 2.1 km/h (1 Bft) N-NO 0.00 h 0 W/m 10.8 C 14.4 C 4.8 km/h (1 Bft)
12.09.2009 04:00 14.5 C 78 % 1020.7 hPa 0.0 l/m 2.2 km/h (1 Bft) N 0.00 h 0 W/m 10.6 C 14.5 C 5.7 km/h (1 Bft)
12.09.2009 05:00 14.3 C 77 % 1020.6 hPa 0.0 l/m 1.2 km/h (1 Bft) N-NO 0.00 h 0 W/m 10.3 C 14.3 C 3.7 km/h (1 Bft)
12.09.2009 06:00 13.8 C 78 % 1020.4 hPa 0.0 l/m 0.9 km/h (0 Bft) O 0.00 h 0 W/m 10.0 C 13.8 C 3.0 km/h (1 Bft)
12.09.2009 07:00 13.9 C 78 % 1020.7 hPa 0.0 l/m 2.1 km/h (1 Bft) NO 0.00 h 29 W/m 10.1 C 13.9 C 5.6 km/h (1 Bft)
12.09.2009 08:00 14.5 C 76 % 1020.6 hPa 0.0 l/m 2.0 km/h (1 Bft) N 0.12 h 101 W/m 10.4 C 14.5 C 4.8 km/h (1 Bft)
12.09.2009 09:00 15.4 C 74 % 1020.4 hPa 0.0 l/m 0.9 km/h (0 Bft) N 0.25 h 181 W/m 10.9 C 15.4 C 3.0 km/h (1 Bft)
12.09.2009 10:00 17.4 C 69 % 1020.2 hPa 0.0 l/m 2.9 km/h (1 Bft) N-NO 0.98 h 461 W/m 11.6 C 17.4 C 6.5 km/h (2 Bft)
12.09.2009 11:00 18.3 C 64 % 1019.8 hPa 0.0 l/m 5.7 km/h (1 Bft) N 0.87 h 499 W/m 11.5 C 18.3 C 11.5 km/h (2 Bft)
12.09.2009 12:00 19.0 C 64 % 1019.3 hPa 0.0 l/m 4.2 km/h (1 Bft) O-SO 0.18 h 334 W/m 12.1 C 19.0 C 7.9 km/h (2 Bft)
12.09.2009 13:00 20.4 C 60 % 1018.9 hPa 0.0 l/m 5.4 km/h (1 Bft) O-SO 0.28 h 396 W/m 12.4 C 20.4 C 10.0 km/h (2 Bft)
12.09.2009 14:00 20.7 C 58 % 1019.0 hPa 0.0 l/m 5.4 km/h (1 Bft) O-SO 0.20 h 312 W/m 12.2 C 20.7 C 11.0 km/h (2 Bft)
12.09.2009 15:00 21.1 C 56 % 1018.9 hPa 0.0 l/m 9.6 km/h (2 Bft) O-SO 0.47 h 399 W/m 11.9 C 21.1 C 17.1 km/h (3 Bft)
12.09.2009 16:00 20.9 C 56 % 1018.4 hPa 0.0 l/m 10.1 km/h (2 Bft) O-SO 0.25 h 237 W/m 11.7 C 20.9 C 17.6 km/h (3 Bft)
12.09.2009 17:00 20.2 C 58 % 1018.6 hPa 0.0 l/m 6.9 km/h (2 Bft) O-SO 0.00 h 95 W/m 11.8 C 20.2 C 12.6 km/h (3 Bft)
12.09.2009 18:00 19.7 C 59 % 1018.6 hPa 0.0 l/m 2.8 km/h (1 Bft) N 0.00 h 43 W/m 11.4 C 19.7 C 6.0 km/h (2 Bft)
12.09.2009 19:00 18.9 C 60 % 1019.0 hPa 0.0 l/m 2.4 km/h (1 Bft) NO 0.00 h 9 W/m 10.9 C 18.9 C 5.2 km/h (1 Bft)
12.09.2009 20:00 18.3 C 62 % 1019.4 hPa 0.0 l/m 0.7 km/h (0 Bft) N-NW 0.00 h 0 W/m 11.0 C 18.3 C 2.2 km/h (1 Bft)
12.09.2009 21:00 17.8 C 64 % 1019.6 hPa 0.0 l/m 1.7 km/h (1 Bft) N 0.00 h 0 W/m 10.9 C 17.8 C 4.4 km/h (1 Bft)
12.09.2009 22:00 17.1 C 64 % 1019.4 hPa 0.0 l/m 2.9 km/h (1 Bft) N-NO 0.00 h 0 W/m 10.2 C 17.1 C 6.1 km/h (2 Bft)
12.09.2009 23:00 16.2 C 67 % 1019.2 hPa 0.0 l/m 2.5 km/h (1 Bft) O-SO 0.00 h 0 W/m 10.0 C 16.2 C 5.5 km/h (1 Bft)
13.09.2009 00:00 14.8 C 72 % 1019.3 hPa 0.0 l/m 0.7 km/h (0 Bft) N-NO 0.00 h 0 W/m 9.8 C 14.8 C 2.3 km/h (1 Bft)
13.09.2009 01:00 14.0 C 74 % 1019.1 hPa 0.0 l/m 0.2 km/h (0 Bft) NO 0.00 h 0 W/m 9.6 C 14.0 C 1.4 km/h (1 Bft)
13.09.2009 02:00 13.2 C 77 % 1019.2 hPa 0.0 l/m 1.2 km/h (1 Bft) O 0.00 h 0 W/m 9.3 C 13.2 C 2.5 km/h (1 Bft)
13.09.2009 03:00 12.2 C 79 % 1019.1 hPa 0.0 l/m 0.4 km/h (0 Bft) O-SO 0.00 h 0 W/m 8.7 C 12.2 C 1.4 km/h (1 Bft)
13.09.2009 04:00 12.0 C 79 % 1019.3 hPa 0.0 l/m 0.1 km/h (0 Bft) O 0.00 h 0 W/m 8.4 C 12.0 C 0.5 km/h (0 Bft)
13.09.2009 05:00 12.1 C 81 % 1019.2 hPa 0.0 l/m 0.4 km/h (0 Bft) O 0.00 h 0 W/m 8.9 C 12.1 C 1.4 km/h (1 Bft)
13.09.2009 06:00 12.3 C 85 % 1019.2 hPa 0.0 l/m 3.4 km/h (1 Bft) N-NW 0.00 h 0 W/m 9.9 C 12.3 C 5.9 km/h (2 Bft)
13.09.2009 07:00 12.3 C 86 % 1019.3 hPa 0.0 l/m 3.1 km/h (1 Bft) N 0.00 h 31 W/m 10.0 C 12.3 C 5.7 km/h (1 Bft)
13.09.2009 08:00 12.6 C 86 % 1019.3 hPa 0.0 l/m 4.2 km/h (1 Bft) N-NW 0.08 h 101 W/m 10.3 C 12.6 C 7.1 km/h (2 Bft)
13.09.2009 09:00 14.6 C 78 % 1019.1 hPa 0.0 l/m 2.1 km/h (1 Bft) N-NW 0.62 h 252 W/m 10.8 C 14.6 C 4.2 km/h (1 Bft)
13.09.2009 10:00 15.4 C 73 % 1018.9 hPa 0.0 l/m 1.2 km/h (1 Bft) NW 0.45 h 317 W/m 10.6 C 15.4 C 2.9 km/h (1 Bft)
13.09.2009 11:00 17.6 C 66 % 1018.2 hPa 0.0 l/m 0.9 km/h (0 Bft) NW 0.85 h 501 W/m 11.2 C 17.6 C 2.6 km/h (1 Bft)
13.09.2009 12:00 19.4 C 57 % 1017.5 hPa 0.0 l/m 2.0 km/h (1 Bft) SO 1.00 h 640 W/m 10.7 C 19.4 C 4.3 km/h (1 Bft)
13.09.2009 13:00 20.6 C 54 % 1016.7 hPa 0.0 l/m 3.0 km/h (1 Bft) W 0.95 h 653 W/m 11.1 C 20.6 C 5.5 km/h (1 Bft)
13.09.2009 14:00 21.1 C 52 % 1016.0 hPa 0.0 l/m 3.2 km/h (1 Bft) W 0.77 h 558 W/m 10.9 C 21.1 C 5.7 km/h (1 Bft)
13.09.2009 15:00 21.6 C 52 % 1015.3 hPa 0.0 l/m 8.7 km/h (2 Bft) W 0.97 h 588 W/m 11.2 C 21.6 C 13.5 km/h (3 Bft)
13.09.2009 16:00 21.1 C 52 % 1014.9 hPa 0.0 l/m 7.3 km/h (2 Bft) W 0.38 h 300 W/m 11.0 C 21.1 C 12.2 km/h (2 Bft)
13.09.2009 17:00 20.3 C 51 % 1014.3 hPa 0.0 l/m 6.4 km/h (2 Bft) W-SW 0.37 h 196 W/m 9.8 C 20.3 C 10.8 km/h (2 Bft)
13.09.2009 18:00 20.7 C 43 % 1014.2 hPa 0.0 l/m 8.6 km/h (2 Bft) W 0.22 h 83 W/m 7.6 C 20.7 C 13.9 km/h (3 Bft)
13.09.2009 19:00 19.0 C 49 % 1014.5 hPa 0.0 l/m 4.8 km/h (1 Bft) NW 0.05 h 20 W/m 7.9 C 19.0 C 8.5 km/h (2 Bft)
13.09.2009 20:00 16.5 C 55 % 1015.2 hPa 0.0 l/m 4.2 km/h (1 Bft) N-NW 0.00 h 0 W/m 7.6 C 16.5 C 7.5 km/h (2 Bft)
13.09.2009 21:00 15.5 C 58 % 1015.7 hPa 0.0 l/m 2.4 km/h (1 Bft) N-NO 0.00 h 0 W/m 7.2 C 15.5 C 5.5 km/h (1 Bft)
13.09.2009 22:00 15.3 C 59 % 1016.1 hPa 0.0 l/m 1.4 km/h (1 Bft) O 0.00 h 0 W/m 7.5 C 15.3 C 4.1 km/h (1 Bft)
13.09.2009 23:00 15.0 C 63 % 1015.9 hPa 0.0 l/m 0.6 km/h (0 Bft) O-SO 0.00 h 0 W/m 7.9 C 15.0 C 2.3 km/h (1 Bft)
Min-Datum _ 07.09.09 09.09.09 13.09.09 - 07.09.09 - - - 09.09.09 07.09.09 07.09.09
_ Min-Zeit 07:00 17:00 18:00 - 00:00 - - - 17:00 07:14 00:00
Minimum _ 7.0 C 27 % 1014.0 hPa - 0.0 km/h (0 Bft) - - - 4.4 C 7.0 C 0.0 km/h (0 Bft)
Max-Datum _ 08.09.09 08.09.09 11.09.09 07.09.09 12.09.09 - 07.09.09 12.09.09 08.09.09 08.09.09 12.09.09
_ Max-Zeit 15:47 08:41 09:30 00:00 15:40 - 07:04 12:56 13:18 15:47 15:40
Maximum _ 26.1 C 99 % 1025.4 hPa 0.0 l/m 24.3 km/h
O-SO (4 Bft)
- 0.02 h 863 W/m 15.4 C 26.1 C 33.0 km/h
O-SO (5 Bft)
Durchschnitt _ 16.7 C 71 % 1021.6 hPa #0.0 l/m 2.3 km/h (1 Bft) O-SO #50:38 h 319 W/m 10.8 C 16.7 C 4.7 km/h (1 Bft)
© Kaiko 2009